createdAt,value
2017-10-20T00:01:04.647Z,96708.57
2017-10-20T00:03:32.169Z,96712.38
2017-10-20T00:05:59.741Z,96717.67
2017-10-20T00:08:27.302Z,96720.74
2017-10-20T00:10:54.974Z,96726.11
2017-10-20T00:13:22.625Z,96727.75
2017-10-20T00:15:50.087Z,96730.42
2017-10-20T00:18:17.532Z,96731.34
2017-10-20T00:20:44.981Z,96727.41
2017-10-20T00:23:12.883Z,96733.30
2017-10-20T00:25:40.332Z,96736.08
2017-10-20T00:28:07.868Z,96739.66
2017-10-20T00:30:35.880Z,96739.80
2017-10-20T00:33:03.316Z,96750.03
2017-10-20T00:35:30.995Z,96742.79
2017-10-20T00:37:58.739Z,96742.38
2017-10-20T00:40:26.285Z,96744.92
2017-10-20T00:42:53.739Z,96749.12
2017-10-20T00:45:21.315Z,96749.91
2017-10-20T00:47:48.834Z,96748.73
2017-10-20T00:50:16.371Z,96747.88
2017-10-20T00:52:44.191Z,96744.86
2017-10-20T00:55:11.658Z,96747.06
2017-10-20T00:57:39.199Z,96746.84
2017-10-20T01:00:07.072Z,96747.55
2017-10-20T01:02:34.584Z,96742.28
2017-10-20T01:05:02.016Z,96747.98
2017-10-20T01:07:29.849Z,96757.44
2017-10-20T01:09:57.344Z,96750.49
2017-10-20T01:12:24.778Z,96754.33
2017-10-20T01:14:52.435Z,96761.95
2017-10-20T01:17:20.007Z,96766.17
2017-10-20T01:19:47.532Z,96760.80
2017-10-20T01:22:15.693Z,96774.67
2017-10-20T01:24:43.207Z,96764.89
2017-10-20T01:27:10.729Z,96770.45
2017-10-20T01:29:38.280Z,96767.14
2017-10-20T01:32:05.752Z,96767.30
2017-10-20T01:34:33.218Z,96762.66
2017-10-20T01:37:01.303Z,96758.22
2017-10-20T01:39:28.855Z,96761.53
2017-10-20T01:41:56.315Z,96766.31
2017-10-20T01:44:23.824Z,96766.92
2017-10-20T01:46:51.450Z,96764.69
2017-10-20T01:49:18.895Z,96764.07
2017-10-20T01:51:46.457Z,96770.53
2017-10-20T01:54:13.907Z,96770.45
2017-10-20T01:56:41.401Z,96764.97
2017-10-20T01:59:09.167Z,96766.09
2017-10-20T02:01:36.709Z,96764.89
2017-10-20T02:04:05.195Z,96760.89
2017-10-20T02:06:33.079Z,96763.64
2017-10-20T02:09:00.602Z,96759.55
2017-10-20T02:11:28.055Z,96758.56
2017-10-20T02:13:55.630Z,96761.96
2017-10-20T02:16:23.096Z,96760.63
2017-10-20T02:18:50.632Z,96763.56
2017-10-20T02:21:18.749Z,96767.48
2017-10-20T02:23:46.218Z,96771.01
2017-10-20T02:26:13.738Z,96776.00
2017-10-20T02:28:41.832Z,96780.83
2017-10-20T02:31:09.296Z,96787.51
2017-10-20T02:33:36.768Z,96790.39
2017-10-20T02:36:04.429Z,96794.21
2017-10-20T02:38:31.880Z,96792.66
2017-10-20T02:40:59.377Z,96796.16
2017-10-20T02:43:27.130Z,96793.34
2017-10-20T02:45:54.700Z,96795.80
2017-10-20T02:48:22.141Z,96800.59
2017-10-20T02:50:49.641Z,96804.88
2017-10-20T02:53:19.107Z,96793.42
2017-10-20T02:55:46.589Z,96790.03
2017-10-20T02:58:14.101Z,96789.04
2017-10-20T03:00:41.581Z,96788.26
2017-10-20T03:03:09.074Z,96788.21
2017-10-20T03:05:36.572Z,96781.86
2017-10-20T03:08:04.064Z,96777.19
2017-10-20T03:10:31.649Z,96787.39
2017-10-20T03:12:59.636Z,96782.34
2017-10-20T03:15:27.114Z,96788.73
2017-10-20T03:17:54.638Z,96782.19
2017-10-20T03:20:22.451Z,96782.73
2017-10-20T03:22:49.878Z,96790.63
2017-10-20T03:25:17.620Z,96788.28
2017-10-20T03:27:45.104Z,96791.69
2017-10-20T03:30:12.564Z,96795.43
2017-10-20T03:32:39.988Z,96797.41
2017-10-20T03:35:07.617Z,96799.69
2017-10-20T03:37:35.097Z,96801.54
2017-10-20T03:40:02.530Z,96805.97
2017-10-20T03:42:30.063Z,96801.20
2017-10-20T03:44:57.516Z,96791.55
2017-10-20T03:47:25.092Z,96803.56
2017-10-20T03:49:52.664Z,96815.34
2017-10-20T03:52:20.117Z,96810.38
2017-10-20T03:54:47.580Z,96810.39
2017-10-20T03:57:15.109Z,96815.94
2017-10-20T03:59:42.702Z,96811.84
2017-10-20T04:02:10.451Z,96808.77
2017-10-20T04:04:37.924Z,96811.28
2017-10-20T04:07:05.476Z,96821.07
2017-10-20T04:09:32.943Z,96814.95
2017-10-20T04:12:00.539Z,96814.13
2017-10-20T04:14:28.046Z,96821.41
2017-10-20T04:16:55.598Z,96823.52
2017-10-20T04:19:23.086Z,96827.12
2017-10-20T04:21:50.524Z,96818.39
2017-10-20T04:24:18.002Z,96817.95
2017-10-20T04:26:45.505Z,96821.56
2017-10-20T04:29:12.990Z,96824.02
2017-10-20T04:31:40.443Z,96822.95
2017-10-20T04:34:08.224Z,96824.19
2017-10-20T04:36:35.802Z,96828.41
2017-10-20T04:39:03.298Z,96826.44
2017-10-20T04:41:30.871Z,96831.44
2017-10-20T04:43:58.324Z,96834.27
2017-10-20T04:46:25.878Z,96835.06
2017-10-20T04:48:53.974Z,96834.72
2017-10-20T04:51:21.460Z,96836.28
2017-10-20T04:53:48.898Z,96836.20
2017-10-20T04:56:16.396Z,96834.82
2017-10-20T04:58:44.875Z,96832.07
2017-10-20T05:01:12.378Z,96824.63
2017-10-20T05:03:39.935Z,96824.89
2017-10-20T05:06:07.402Z,96824.89
2017-10-20T05:08:34.946Z,96825.54
2017-10-20T05:11:02.616Z,96826.19
2017-10-20T05:13:30.064Z,96823.78
2017-10-20T05:15:57.531Z,96823.31
2017-10-20T05:18:25.005Z,96825.98
2017-10-20T05:20:52.513Z,96821.20
2017-10-20T05:23:20.028Z,96820.30
2017-10-20T05:25:47.522Z,96812.69
2017-10-20T05:28:15.036Z,96814.45
2017-10-20T05:30:42.564Z,96812.64
2017-10-20T05:33:10.197Z,96809.83
2017-10-20T05:35:37.679Z,96807.94
2017-10-20T05:38:05.727Z,96802.00
2017-10-20T05:40:33.328Z,96806.95
2017-10-20T05:43:00.830Z,96810.34
2017-10-20T05:45:29.269Z,96810.70
2017-10-20T05:47:57.217Z,96812.94
2017-10-20T05:50:25.563Z,96817.11
2017-10-20T05:52:53.010Z,96820.60
2017-10-20T05:55:20.550Z,96820.60
2017-10-20T05:57:48.118Z,96820.90
2017-10-20T06:00:16.423Z,96826.85
2017-10-20T06:02:44.561Z,96834.31
2017-10-20T06:05:12.014Z,96831.98
2017-10-20T06:07:39.474Z,96835.99
2017-10-20T06:10:07.411Z,96836.77
2017-10-20T06:12:34.901Z,96846.33
2017-10-20T06:15:02.405Z,96847.39
2017-10-20T06:17:40.781Z,96855.33
2017-10-20T06:20:08.284Z,96852.42
2017-10-20T06:22:35.773Z,96858.23
2017-10-20T06:25:03.464Z,96850.58
2017-10-20T06:27:31.026Z,96852.67
2017-10-20T06:29:58.589Z,96858.16
2017-10-20T06:32:26.154Z,96861.44
2017-10-20T06:34:53.731Z,96868.13
2017-10-20T06:37:21.218Z,96875.63
2017-10-20T06:39:49.075Z,96870.78
2017-10-20T06:42:16.617Z,96868.42
2017-10-20T06:44:44.090Z,96871.26
2017-10-20T06:47:11.679Z,96882.52
2017-10-20T06:49:39.173Z,96873.55
2017-10-20T06:52:06.660Z,96881.67
2017-10-20T06:54:34.347Z,96879.20
2017-10-20T06:57:01.853Z,96884.05
2017-10-20T06:59:29.323Z,96881.69
2017-10-20T07:01:57.236Z,96887.40
2017-10-20T07:04:24.746Z,96883.13
2017-10-20T07:06:52.226Z,96886.34
2017-10-20T07:09:20.297Z,96885.52
2017-10-20T07:11:47.757Z,96882.16
2017-10-20T07:14:15.325Z,96881.10
2017-10-20T07:16:42.890Z,96882.75
2017-10-20T07:22:19.995Z,96884.98
2017-10-20T07:24:47.524Z,96885.31
2017-10-20T07:27:14.995Z,96884.88
2017-10-20T07:29:43.086Z,96901.63
2017-10-20T07:32:11.383Z,96905.13
2017-10-20T07:34:41.702Z,96917.39
2017-10-20T07:37:09.619Z,96918.61
2017-10-20T07:39:37.122Z,96930.80
2017-10-20T07:42:05.355Z,96932.85
2017-10-20T07:44:32.901Z,96921.84
2017-10-20T07:47:00.407Z,96926.48
2017-10-20T07:49:28.040Z,96925.55
2017-10-20T07:51:56.012Z,96935.47
2017-10-20T07:54:23.570Z,96934.61
2017-10-20T07:56:51.080Z,96935.92
2017-10-20T07:59:18.594Z,96945.11
2017-10-20T08:01:46.066Z,96949.52
2017-10-20T08:04:13.525Z,96944.39
2017-10-20T08:06:41.460Z,96942.59
2017-10-20T08:09:08.940Z,96943.21
2017-10-20T08:11:36.442Z,96940.98
2017-10-20T08:14:03.932Z,96940.20
2017-10-20T08:16:31.419Z,96941.36
2017-10-20T08:18:58.924Z,96952.52
2017-10-20T08:21:26.559Z,96944.41
2017-10-20T08:23:54.017Z,96939.47
2017-10-20T08:26:21.670Z,96938.59
2017-10-20T08:28:50.157Z,96934.92
2017-10-20T08:31:17.608Z,96928.92
2017-10-20T08:33:45.092Z,96930.20
2017-10-20T08:36:13.072Z,96930.22
2017-10-20T08:38:40.531Z,96934.91
2017-10-20T08:41:09.848Z,96930.28
2017-10-20T08:43:37.534Z,96934.82
2017-10-20T08:46:05.330Z,96939.80
2017-10-20T08:48:32.800Z,96944.59
2017-10-20T08:51:01.123Z,96941.12
2017-10-20T08:53:29.557Z,96938.15
2017-10-20T08:55:57.050Z,96940.09
2017-10-20T08:58:24.589Z,96947.53
2017-10-20T09:00:52.139Z,96943.42
2017-10-20T09:03:19.683Z,96945.66
2017-10-20T09:05:48.348Z,96946.88
2017-10-20T09:08:16.166Z,96944.76
2017-10-20T09:10:43.883Z,96948.66
2017-10-20T09:13:11.641Z,96951.95
2017-10-20T09:15:39.312Z,96949.64
2017-10-20T09:18:06.883Z,96949.86
2017-10-20T09:20:34.669Z,96952.81
2017-10-20T09:23:02.375Z,96948.70
2017-10-20T09:25:29.862Z,96949.53
2017-10-20T09:27:57.700Z,96956.27
2017-10-20T09:30:25.173Z,96954.86
2017-10-20T09:32:52.668Z,96944.39
2017-10-20T09:35:20.236Z,96950.30
2017-10-20T09:37:48.253Z,96954.16
2017-10-20T09:40:17.751Z,96953.78
2017-10-20T09:42:45.667Z,96957.06
2017-10-20T09:45:13.127Z,96951.20
2017-10-20T09:47:40.711Z,96955.80
2017-10-20T09:50:08.382Z,96961.06
2017-10-20T09:52:35.889Z,96958.19
2017-10-20T09:55:03.682Z,96959.78
2017-10-20T09:57:31.409Z,96962.05
2017-10-20T09:59:59.153Z,96955.59
2017-10-20T10:02:26.712Z,96956.55
2017-10-20T10:04:54.226Z,96953.61
2017-10-20T10:07:21.828Z,96949.94
2017-10-20T10:09:49.638Z,96954.61
2017-10-20T10:12:17.644Z,96951.16
2017-10-20T10:14:45.247Z,96948.91
2017-10-20T10:17:12.778Z,96952.31
2017-10-20T10:19:40.459Z,96953.66
2017-10-20T10:22:07.927Z,96955.55
2017-10-20T10:24:35.467Z,96954.67
2017-10-20T10:27:03.018Z,96954.71
2017-10-20T10:29:30.958Z,96955.00
2017-10-20T10:31:58.562Z,96946.34
2017-10-20T10:34:26.564Z,96944.95
2017-10-20T10:36:54.020Z,96946.14
2017-10-20T10:39:21.481Z,96944.24
2017-10-20T10:41:49.051Z,96949.63
2017-10-20T10:44:16.530Z,96936.94
2017-10-20T10:46:44.038Z,96939.91
2017-10-20T10:49:11.530Z,96936.45
2017-10-20T10:51:39.021Z,96932.14
2017-10-20T10:54:06.504Z,96934.01
2017-10-20T10:56:34.193Z,96944.98
2017-10-20T10:59:01.646Z,96940.20
2017-10-20T11:01:29.319Z,96932.66
2017-10-20T11:03:57.271Z,96933.28
2017-10-20T11:06:37.327Z,96932.77
2017-10-20T11:09:17.026Z,96935.67
2017-10-20T11:11:56.381Z,96939.88
2017-10-20T11:14:23.946Z,96934.59
2017-10-20T11:16:51.557Z,96931.52
2017-10-20T11:19:19.975Z,96934.73
2017-10-20T11:21:47.898Z,96939.91
2017-10-20T11:24:15.424Z,96935.40
2017-10-20T11:26:42.973Z,96938.62
2017-10-20T11:29:10.953Z,96939.70
2017-10-20T11:31:38.436Z,96941.50
2017-10-20T11:34:05.965Z,96948.38
2017-10-20T11:36:33.677Z,96949.38
2017-10-20T11:39:01.295Z,96944.91
2017-10-20T11:41:28.859Z,96946.22
2017-10-20T11:43:56.352Z,96952.33
2017-10-20T11:46:23.887Z,96954.11
2017-10-20T11:48:51.492Z,96962.70
2017-10-20T11:51:19.123Z,96959.34
2017-10-20T11:53:46.803Z,96953.78
2017-10-20T11:56:14.334Z,96952.20
2017-10-20T11:58:41.958Z,96951.50
2017-10-20T12:01:09.510Z,96959.23
2017-10-20T12:03:37.030Z,96958.42
2017-10-20T12:06:04.553Z,96962.70
2017-10-20T12:08:31.985Z,96952.50
2017-10-20T12:10:59.417Z,96952.34
2017-10-20T12:13:26.989Z,96943.92
2017-10-20T12:15:54.497Z,96941.80
2017-10-20T12:18:22.013Z,96936.76
2017-10-20T12:20:49.587Z,96931.11
2017-10-20T12:23:17.164Z,96932.69
2017-10-20T12:25:44.899Z,96936.39
2017-10-20T12:28:12.474Z,96931.95
2017-10-20T12:30:40.032Z,96929.72
2017-10-20T12:33:07.735Z,96938.92
2017-10-20T12:35:35.249Z,96939.35
2017-10-20T12:38:02.837Z,96943.09
2017-10-20T12:40:30.488Z,96944.81
2017-10-20T12:42:57.972Z,96950.52
2017-10-20T12:45:25.518Z,96950.74
2017-10-20T12:47:53.081Z,96949.20
2017-10-20T12:50:20.620Z,96954.96
2017-10-20T12:52:48.708Z,96958.30
2017-10-20T12:55:16.390Z,96956.72
2017-10-20T12:57:44.426Z,96962.36
2017-10-20T13:00:12.003Z,96956.12
2017-10-20T13:02:39.530Z,96951.02
2017-10-20T13:05:07.146Z,96956.03
2017-10-20T13:07:34.659Z,96951.63
2017-10-20T13:10:02.191Z,96962.27
2017-10-20T13:12:29.694Z,96959.87
2017-10-20T13:14:57.251Z,96967.03
2017-10-20T13:17:24.740Z,96964.78
2017-10-20T13:19:52.648Z,96969.48
2017-10-20T13:22:20.103Z,96974.61
2017-10-20T13:24:47.686Z,96971.82
2017-10-20T13:27:15.258Z,96970.22
2017-10-20T13:29:42.823Z,96977.02
2017-10-20T13:32:10.263Z,96973.95
2017-10-20T13:34:38.047Z,96974.41
2017-10-20T13:37:05.989Z,96979.62
2017-10-20T13:39:33.530Z,96983.53
2017-10-20T13:42:01.446Z,96983.95
2017-10-20T13:44:29.074Z,96985.86
2017-10-20T13:46:56.676Z,96988.47
2017-10-20T13:49:24.311Z,96987.95
2017-10-20T13:51:51.800Z,96983.58
2017-10-20T13:54:19.571Z,96987.81
2017-10-20T13:56:47.127Z,96982.28
2017-10-20T13:59:14.599Z,96977.98
2017-10-20T14:01:42.276Z,96981.78
2017-10-20T14:04:09.855Z,96981.94
2017-10-20T14:06:37.518Z,96981.38
2017-10-20T14:09:05.147Z,96990.49
2017-10-20T14:11:32.849Z,96994.78
2017-10-20T14:14:00.381Z,96995.58
2017-10-20T14:16:27.962Z,96988.81
2017-10-20T14:18:55.530Z,96991.50
2017-10-20T14:21:23.184Z,96986.05
2017-10-20T14:23:50.720Z,96983.56
2017-10-20T14:26:18.671Z,96984.13
2017-10-20T14:28:46.167Z,96984.73
2017-10-20T14:31:13.741Z,96986.84
2017-10-20T14:33:41.451Z,96995.86
2017-10-20T14:36:08.993Z,96999.52
2017-10-20T14:38:36.466Z,97002.30
2017-10-20T14:41:04.170Z,97001.29
2017-10-20T14:43:31.750Z,96996.88
2017-10-20T14:45:59.274Z,96998.22
2017-10-20T14:48:27.419Z,97002.05
2017-10-20T14:50:55.134Z,97006.47
2017-10-20T14:53:23.723Z,97003.84
2017-10-20T14:55:51.223Z,97001.91
2017-10-20T14:58:18.878Z,96999.86
2017-10-20T15:00:46.425Z,96998.23
2017-10-20T15:03:13.953Z,97003.71
2017-10-20T15:05:41.476Z,97002.03
2017-10-20T15:08:08.938Z,97004.28
2017-10-20T15:10:36.677Z,97015.34
2017-10-20T15:13:04.213Z,97003.80
2017-10-20T15:15:31.688Z,96999.30
2017-10-20T15:17:59.193Z,96997.61
2017-10-20T15:20:26.748Z,96999.44
2017-10-20T15:22:54.323Z,96998.67
2017-10-20T15:25:22.011Z,97012.05
2017-10-20T15:27:50.544Z,97023.94
2017-10-20T15:30:18.107Z,97017.13
2017-10-20T15:32:45.709Z,97013.97
2017-10-20T15:35:13.255Z,97018.12
2017-10-20T15:37:40.686Z,97015.24
2017-10-20T15:40:08.364Z,97004.30
2017-10-20T15:42:36.004Z,97008.13
2017-10-20T15:45:03.569Z,97003.11
2017-10-20T15:47:31.112Z,97006.39
2017-10-20T15:49:58.891Z,97010.33
2017-10-20T15:52:26.345Z,97008.44
2017-10-20T15:54:53.874Z,97006.91
2017-10-20T15:57:21.498Z,97003.73
2017-10-20T15:59:48.948Z,96999.19
2017-10-20T16:02:16.489Z,97008.63
2017-10-20T16:04:43.970Z,97003.54
2017-10-20T16:07:11.636Z,96999.91
2017-10-20T16:09:39.174Z,97006.22
2017-10-20T16:12:06.890Z,97006.50
2017-10-20T16:14:34.465Z,97005.67
2017-10-20T16:17:02.926Z,96998.94
2017-10-20T16:19:30.434Z,97006.80
2017-10-20T16:21:58.024Z,97013.14
2017-10-20T16:24:25.623Z,97009.77
2017-10-20T16:26:53.118Z,97005.33
2017-10-20T16:29:20.829Z,97000.95
2017-10-20T16:31:48.366Z,96993.87
2017-10-20T16:34:16.051Z,96992.13
2017-10-20T16:36:43.620Z,96996.91
2017-10-20T16:39:11.936Z,97000.98
2017-10-20T16:41:39.447Z,96995.25
2017-10-20T16:44:07.539Z,96993.95
2017-10-20T16:46:35.085Z,96992.52
2017-10-20T16:49:02.719Z,97002.10
2017-10-20T16:51:30.201Z,97003.84
2017-10-20T16:53:58.004Z,97001.59
2017-10-20T16:56:25.663Z,97001.23
2017-10-20T16:58:53.195Z,97000.84
2017-10-20T17:01:20.791Z,97004.69
2017-10-20T17:03:48.469Z,97001.78
2017-10-20T17:06:16.036Z,97004.99
2017-10-20T17:08:43.978Z,97008.67
2017-10-20T17:11:11.516Z,97010.94
2017-10-20T17:13:40.020Z,97019.59
2017-10-20T17:16:07.530Z,97016.41
2017-10-20T17:18:35.065Z,97021.92
2017-10-20T17:21:02.694Z,97017.58
2017-10-20T17:23:30.377Z,97024.92
2017-10-20T17:25:57.918Z,97028.22
2017-10-20T17:28:25.456Z,97030.27
2017-10-20T17:30:56.679Z,97025.52
2017-10-20T17:33:24.748Z,97026.54
2017-10-20T17:35:52.366Z,97029.20
2017-10-20T17:38:20.061Z,97028.83
2017-10-20T17:40:47.930Z,97027.59
2017-10-20T17:43:15.488Z,97026.07
2017-10-20T17:45:43.449Z,97031.84
2017-10-20T17:48:11.067Z,97026.72
2017-10-20T17:50:38.821Z,97029.30
2017-10-20T17:53:06.457Z,97029.15
2017-10-20T17:55:34.016Z,97035.52
2017-10-20T17:58:01.516Z,97032.98
2017-10-20T18:00:29.101Z,97035.20
2017-10-20T18:02:56.849Z,97031.52
2017-10-20T18:05:24.332Z,97031.45
2017-10-20T18:07:51.889Z,97022.92
2017-10-20T18:10:19.446Z,97021.34
2017-10-20T18:12:47.027Z,97029.22
2017-10-20T18:15:14.610Z,97017.86
2017-10-20T18:17:42.169Z,97018.95
2017-10-20T18:20:09.875Z,97007.09
2017-10-20T18:22:39.357Z,97022.53
2017-10-20T18:25:06.827Z,97021.58
2017-10-20T18:27:34.388Z,97022.86
2017-10-20T18:30:01.866Z,97022.20
2017-10-20T18:32:29.473Z,97027.95
2017-10-20T18:34:56.942Z,97022.05
2017-10-20T18:37:24.576Z,97020.77
2017-10-20T18:39:52.099Z,97020.97
2017-10-20T18:42:19.862Z,97013.53
2017-10-20T18:44:47.715Z,97007.47
2017-10-20T18:47:15.279Z,97002.34
2017-10-20T18:49:42.835Z,96995.85
2017-10-20T18:52:10.332Z,96997.30
2017-10-20T18:54:37.869Z,96997.81
2017-10-20T18:57:05.364Z,96996.30
2017-10-20T18:59:33.063Z,96995.60
2017-10-20T19:02:00.877Z,96993.59
2017-10-20T19:04:28.464Z,96995.30
2017-10-20T19:06:56.152Z,96993.84
2017-10-20T19:09:23.712Z,97001.37
2017-10-20T19:11:51.307Z,96999.26
2017-10-20T19:14:18.984Z,96994.95
2017-10-20T19:16:46.640Z,97006.91
2017-10-20T19:19:16.157Z,97003.39
2017-10-20T19:21:43.799Z,97005.64
2017-10-20T19:24:11.678Z,97002.12
2017-10-20T19:26:39.237Z,97002.78
2017-10-20T19:29:07.696Z,97000.61
2017-10-20T19:31:35.324Z,97009.77
2017-10-20T19:34:02.815Z,97005.40
2017-10-20T19:36:30.592Z,97011.13
2017-10-20T19:38:58.189Z,97005.67
2017-10-20T19:41:25.744Z,97013.76
2017-10-20T19:43:53.310Z,97016.78
2017-10-20T19:46:20.869Z,97020.30
2017-10-20T19:48:48.443Z,97021.65
2017-10-20T19:51:16.073Z,97024.11
2017-10-20T19:53:43.749Z,97020.16
2017-10-20T19:56:11.455Z,97020.66
2017-10-20T19:58:39.342Z,97024.80
2017-10-20T20:01:07.058Z,97023.61
2017-10-20T20:03:34.720Z,97023.67
2017-10-20T20:06:02.324Z,97026.03
2017-10-20T20:08:30.062Z,97021.07
2017-10-20T20:10:57.551Z,97016.36
2017-10-20T20:13:25.189Z,97028.65
2017-10-20T20:15:52.699Z,97026.97
2017-10-20T20:18:20.368Z,97024.53
2017-10-20T20:20:47.924Z,97022.42
2017-10-20T20:23:15.511Z,97026.72
2017-10-20T20:25:43.160Z,97023.75
2017-10-20T20:28:10.821Z,97027.03
2017-10-20T20:30:49.077Z,97029.98
2017-10-20T20:33:22.227Z,97023.93
2017-10-20T20:35:49.804Z,97018.52
2017-10-20T20:38:17.637Z,97021.99
2017-10-20T20:40:45.318Z,97027.20
2017-10-20T20:43:12.845Z,97026.50
2017-10-20T20:45:40.464Z,97024.49
2017-10-20T20:48:07.988Z,97025.94
2017-10-20T20:50:35.464Z,97025.50
2017-10-20T20:53:03.106Z,97018.52
2017-10-20T20:55:30.679Z,97023.48
2017-10-20T20:57:58.377Z,97010.11
2017-10-20T21:00:25.877Z,97029.72
2017-10-20T21:02:53.539Z,97015.40
2017-10-20T21:05:21.101Z,97022.07
2017-10-20T21:07:48.592Z,97019.77
2017-10-20T21:10:16.258Z,97024.23
2017-10-20T21:12:43.784Z,97025.02
2017-10-20T21:15:11.417Z,97023.06
2017-10-20T21:17:38.929Z,97023.89
2017-10-20T21:20:06.448Z,97021.63
2017-10-20T21:22:33.890Z,97023.49
2017-10-20T21:25:01.402Z,97026.34
2017-10-20T21:27:28.995Z,97023.05
2017-10-20T21:29:56.486Z,97025.73
2017-10-20T21:32:24.010Z,97025.66
2017-10-20T21:34:51.556Z,97012.77
2017-10-20T21:37:19.198Z,97026.92
2017-10-20T21:39:46.740Z,97016.58
2017-10-20T21:42:14.553Z,97020.95
2017-10-20T21:44:42.062Z,97027.17
2017-10-20T21:47:09.611Z,97025.31
2017-10-20T21:49:37.291Z,97027.95
2017-10-20T21:52:05.753Z,97019.45
2017-10-20T21:54:33.388Z,97023.22
2017-10-20T21:57:00.952Z,97026.66
2017-10-20T21:59:28.528Z,97031.22
2017-10-20T22:01:56.237Z,97028.67
2017-10-20T22:04:23.725Z,97032.62
2017-10-20T22:06:51.256Z,97027.40
2017-10-20T22:09:19.255Z,97029.85
2017-10-20T22:11:46.841Z,97032.18
2017-10-20T22:14:14.304Z,97030.16
2017-10-20T22:16:41.781Z,97028.45
2017-10-20T22:19:09.269Z,97030.81
2017-10-20T22:21:36.819Z,97028.55
2017-10-20T22:24:05.236Z,97025.36
2017-10-20T22:26:32.845Z,97025.42
2017-10-20T22:29:00.319Z,97029.62
2017-10-20T22:31:27.886Z,97024.66
2017-10-20T22:33:55.361Z,97023.84
2017-10-20T22:36:22.864Z,97034.52
2017-10-20T22:38:50.437Z,97029.55
2017-10-20T22:41:22.833Z,97026.34
2017-10-20T22:43:50.280Z,97031.23
2017-10-20T22:46:17.869Z,97028.12
2017-10-20T22:48:45.449Z,97028.27
2017-10-20T22:51:13.059Z,97036.44
2017-10-20T22:53:40.533Z,97033.66
2017-10-20T22:56:08.069Z,97029.55
2017-10-20T22:58:35.549Z,97023.31
2017-10-20T23:01:03.125Z,97022.16
2017-10-20T23:03:30.586Z,97019.95
2017-10-20T23:05:58.056Z,97025.00
2017-10-20T23:08:25.612Z,97018.52
2017-10-20T23:10:53.071Z,97011.03
2017-10-20T23:13:20.533Z,97014.73
2017-10-20T23:15:48.394Z,97018.92
2017-10-20T23:18:16.126Z,97019.50
2017-10-20T23:20:43.610Z,97025.47
2017-10-20T23:23:11.277Z,97028.01
2017-10-20T23:25:38.806Z,97022.95
2017-10-20T23:28:06.285Z,97026.91
2017-10-20T23:30:33.841Z,97027.09
2017-10-20T23:33:01.331Z,97026.59
2017-10-20T23:35:28.837Z,97036.11
2017-10-20T23:37:56.401Z,97028.95
2017-10-20T23:40:23.850Z,97031.39
2017-10-20T23:42:51.320Z,97026.44
2017-10-20T23:45:18.848Z,97033.59
2017-10-20T23:47:46.295Z,97039.04
2017-10-20T23:50:13.777Z,97041.23
2017-10-20T23:52:41.445Z,97037.30
2017-10-20T23:55:08.942Z,97039.98
2017-10-20T23:57:36.415Z,97037.20
